sensor_id;sensor_type;location;lat;lon;timestamp;temperature;humidity
2112;DHT22;1062;52.538;13.400;2022-11-15T00:01:09;6.00;99.90
2112;DHT22;1062;52.538;13.400;2022-11-15T00:03:38;5.90;99.90
2112;DHT22;1062;52.538;13.400;2022-11-15T00:06:04;6.00;99.90
2112;DHT22;1062;52.538;13.400;2022-11-15T00:08:31;6.00;99.90
2112;DHT22;1062;52.538;13.400;2022-11-15T00:10:59;5.90;99.90
2112;DHT22;1062;52.538;13.400;2022-11-15T00:13:25;5.90;99.90
2112;DHT22;1062;52.538;13.400;2022-11-15T00:15:51;5.90;99.90
2112;DHT22;1062;52.538;13.400;2022-11-15T00:18:17;5.90;99.90
2112;DHT22;1062;52.538;13.400;2022-11-15T00:20:43;5.90;99.90
2112;DHT22;1062;52.538;13.400;2022-11-15T00:23:09;5.80;99.90
2112;DHT22;1062;52.538;13.400;2022-11-15T00:25:35;5.80;99.90
2112;DHT22;1062;52.538;13.400;2022-11-15T00:28:01;5.80;99.90
2112;DHT22;1062;52.538;13.400;2022-11-15T00:30:27;5.80;99.90
2112;DHT22;1062;52.538;13.400;2022-11-15T00:32:53;5.80;99.90
2112;DHT22;1062;52.538;13.400;2022-11-15T00:35:19;5.80;99.90
2112;DHT22;1062;52.538;13.400;2022-11-15T00:37:44;5.70;99.90
2112;DHT22;1062;52.538;13.400;2022-11-15T00:40:11;5.80;99.90
2112;DHT22;1062;52.538;13.400;2022-11-15T00:42:38;5.70;99.90
2112;DHT22;1062;52.538;13.400;2022-11-15T00:45:04;5.70;99.90
2112;DHT22;1062;52.538;13.400;2022-11-15T00:47:29;5.70;99.90
2112;DHT22;1062;52.538;13.400;2022-11-15T00:49:55;5.70;99.90
2112;DHT22;1062;52.538;13.400;2022-11-15T00:52:21;5.70;99.90
2112;DHT22;1062;52.538;13.400;2022-11-15T00:54:46;5.70;99.90
2112;DHT22;1062;52.538;13.400;2022-11-15T00:57:12;5.70;99.90
2112;DHT22;1062;52.538;13.400;2022-11-15T00:59:39;5.60;99.90
2112;DHT22;1062;52.538;13.400;2022-11-15T01:02:11;5.70;99.90
2112;DHT22;1062;52.538;13.400;2022-11-15T01:04:37;5.70;99.90
2112;DHT22;1062;52.538;13.400;2022-11-15T01:07:03;5.70;99.90
2112;DHT22;1062;52.538;13.400;2022-11-15T01:09:29;5.60;99.90
2112;DHT22;1062;52.538;13.400;2022-11-15T01:11:55;5.60;99.90
2112;DHT22;1062;52.538;13.400;2022-11-15T01:14:22;5.60;99.90
2112;DHT22;1062;52.538;13.400;2022-11-15T01:16:48;5.60;99.90
2112;DHT22;1062;52.538;13.400;2022-11-15T01:19:14;5.60;99.90
2112;DHT22;1062;52.538;13.400;2022-11-15T01:21:40;5.60;99.90
2112;DHT22;1062;52.538;13.400;2022-11-15T01:24:07;5.60;99.90
2112;DHT22;1062;52.538;13.400;2022-11-15T01:26:33;5.60;99.90
2112;DHT22;1062;52.538;13.400;2022-11-15T01:28:59;5.50;99.90
2112;DHT22;1062;52.538;13.400;2022-11-15T01:31:25;5.50;99.90
2112;DHT22;1062;52.538;13.400;2022-11-15T01:33:50;5.50;99.90
2112;DHT22;1062;52.538;13.400;2022-11-15T01:36:18;5.50;99.90
2112;DHT22;1062;52.538;13.400;2022-11-15T01:38:45;5.50;99.90
2112;DHT22;1062;52.538;13.400;2022-11-15T01:41:16;5.50;99.90
2112;DHT22;1062;52.538;13.400;2022-11-15T01:43:42;5.50;99.90
2112;DHT22;1062;52.538;13.400;2022-11-15T01:46:24;5.50;99.90
2112;DHT22;1062;52.538;13.400;2022-11-15T01:48:51;5.40;99.90
2112;DHT22;1062;52.538;13.400;2022-11-15T01:51:20;5.40;99.90
2112;DHT22;1062;52.538;13.400;2022-11-15T01:53:49;5.40;99.90
2112;DHT22;1062;52.538;13.400;2022-11-15T01:56:19;5.40;99.90
2112;DHT22;1062;52.538;13.400;2022-11-15T01:58:45;5.40;99.90
2112;DHT22;1062;52.538;13.400;2022-11-15T02:01:13;5.50;99.90
2112;DHT22;1062;52.538;13.400;2022-11-15T02:03:54;5.40;99.90
2112;DHT22;1062;52.538;13.400;2022-11-15T02:06:22;5.50;99.90
2112;DHT22;1062;52.538;13.400;2022-11-15T02:08:49;5.50;99.90
2112;DHT22;1062;52.538;13.400;2022-11-15T02:11:15;5.40;99.90
2112;DHT22;1062;52.538;13.400;2022-11-15T02:13:41;5.40;99.90
2112;DHT22;1062;52.538;13.400;2022-11-15T02:19:21;5.40;99.90
2112;DHT22;1062;52.538;13.400;2022-11-15T02:21:55;5.40;99.90
2112;DHT22;1062;52.538;13.400;2022-11-15T02:24:49;5.50;99.90
2112;DHT22;1062;52.538;13.400;2022-11-15T02:30:35;5.50;99.90
2112;DHT22;1062;52.538;13.400;2022-11-15T02:39:15;5.60;99.90
2112;DHT22;1062;52.538;13.400;2022-11-15T02:41:37;5.60;99.90
2112;DHT22;1062;52.538;13.400;2022-11-15T02:46:49;5.60;99.90
2112;DHT22;1062;52.538;13.400;2022-11-15T02:49:34;5.60;99.90
2112;DHT22;1062;52.538;13.400;2022-11-15T02:52:01;5.60;99.90
2112;DHT22;1062;52.538;13.400;2022-11-15T02:54:30;5.60;99.90
2112;DHT22;1062;52.538;13.400;2022-11-15T02:57:01;5.60;99.90
2112;DHT22;1062;52.538;13.400;2022-11-15T03:02:20;5.60;99.90
2112;DHT22;1062;52.538;13.400;2022-11-15T03:05:04;5.60;99.90
2112;DHT22;1062;52.538;13.400;2022-11-15T03:10:36;5.70;99.90
2112;DHT22;1062;52.538;13.400;2022-11-15T03:13:27;5.60;99.90
2112;DHT22;1062;52.538;13.400;2022-11-15T03:18:35;5.70;99.90
2112;DHT22;1062;52.538;13.400;2022-11-15T03:21:05;5.70;99.90
2112;DHT22;1062;52.538;13.400;2022-11-15T03:23:33;5.70;99.90
2112;DHT22;1062;52.538;13.400;2022-11-15T03:26:00;5.70;99.90
2112;DHT22;1062;52.538;13.400;2022-11-15T03:31:14;5.70;99.90
2112;DHT22;1062;52.538;13.400;2022-11-15T03:34:01;5.70;99.90
2112;DHT22;1062;52.538;13.400;2022-11-15T03:36:29;5.70;99.90
2112;DHT22;1062;52.538;13.400;2022-11-15T03:39:00;5.70;99.90
2112;DHT22;1062;52.538;13.400;2022-11-15T03:41:31;5.70;99.90
2112;DHT22;1062;52.538;13.400;2022-11-15T03:44:15;5.70;99.90
2112;DHT22;1062;52.538;13.400;2022-11-15T03:46:47;5.70;99.90
2112;DHT22;1062;52.538;13.400;2022-11-15T03:49:22;5.80;99.90
2112;DHT22;1062;52.538;13.400;2022-11-15T03:51:49;5.80;99.90
2112;DHT22;1062;52.538;13.400;2022-11-15T03:54:15;5.80;99.90
2112;DHT22;1062;52.538;13.400;2022-11-15T03:56:41;5.80;99.90
2112;DHT22;1062;52.538;13.400;2022-11-15T03:59:06;5.80;99.90
2112;DHT22;1062;52.538;13.400;2022-11-15T04:01:32;5.80;99.90
2112;DHT22;1062;52.538;13.400;2022-11-15T04:03:57;5.80;99.90
2112;DHT22;1062;52.538;13.400;2022-11-15T04:06:23;5.90;99.90
2112;DHT22;1062;52.538;13.400;2022-11-15T04:08:48;5.80;99.90
2112;DHT22;1062;52.538;13.400;2022-11-15T04:11:14;5.90;99.90
2112;DHT22;1062;52.538;13.400;2022-11-15T04:13:40;5.80;99.90
2112;DHT22;1062;52.538;13.400;2022-11-15T04:16:05;5.80;99.90
2112;DHT22;1062;52.538;13.400;2022-11-15T04:18:31;5.80;99.90
2112;DHT22;1062;52.538;13.400;2022-11-15T04:20:56;5.80;99.90
2112;DHT22;1062;52.538;13.400;2022-11-15T04:23:41;5.80;99.90
2112;DHT22;1062;52.538;13.400;2022-11-15T04:26:20;5.80;99.90
2112;DHT22;1062;52.538;13.400;2022-11-15T04:28:46;5.80;99.90
2112;DHT22;1062;52.538;13.400;2022-11-15T04:31:30;5.80;99.90
2112;DHT22;1062;52.538;13.400;2022-11-15T04:33:56;5.90;99.90
2112;DHT22;1062;52.538;13.400;2022-11-15T04:36:22;5.90;99.90
2112;DHT22;1062;52.538;13.400;2022-11-15T04:39:07;5.80;99.90
2112;DHT22;1062;52.538;13.400;2022-11-15T04:41:32;5.80;99.90
2112;DHT22;1062;52.538;13.400;2022-11-15T04:43:58;5.80;99.90
2112;DHT22;1062;52.538;13.400;2022-11-15T04:46:24;5.90;99.90
2112;DHT22;1062;52.538;13.400;2022-11-15T04:48:51;5.80;99.90
2112;DHT22;1062;52.538;13.400;2022-11-15T04:51:16;5.80;99.90
2112;DHT22;1062;52.538;13.400;2022-11-15T04:53:42;5.80;99.90
2112;DHT22;1062;52.538;13.400;2022-11-15T04:56:08;5.70;99.90
2112;DHT22;1062;52.538;13.400;2022-11-15T04:58:33;5.70;99.90
2112;DHT22;1062;52.538;13.400;2022-11-15T05:01:13;5.70;99.90
2112;DHT22;1062;52.538;13.400;2022-11-15T05:03:40;5.70;99.90
2112;DHT22;1062;52.538;13.400;2022-11-15T05:06:25;5.80;99.90
2112;DHT22;1062;52.538;13.400;2022-11-15T05:08:50;5.80;99.90
2112;DHT22;1062;52.538;13.400;2022-11-15T05:11:16;5.80;99.90
2112;DHT22;1062;52.538;13.400;2022-11-15T05:13:42;5.80;99.90
2112;DHT22;1062;52.538;13.400;2022-11-15T05:16:07;5.70;99.90
2112;DHT22;1062;52.538;13.400;2022-11-15T05:18:33;5.70;99.90
2112;DHT22;1062;52.538;13.400;2022-11-15T05:21:15;5.70;99.90
2112;DHT22;1062;52.538;13.400;2022-11-15T05:23:40;5.70;99.90
2112;DHT22;1062;52.538;13.400;2022-11-15T05:26:10;5.70;99.90
2112;DHT22;1062;52.538;13.400;2022-11-15T05:28:36;5.70;99.90
2112;DHT22;1062;52.538;13.400;2022-11-15T05:31:11;5.70;99.90
2112;DHT22;1062;52.538;13.400;2022-11-15T05:33:38;5.70;99.90
2112;DHT22;1062;52.538;13.400;2022-11-15T05:38:53;5.70;99.90
2112;DHT22;1062;52.538;13.400;2022-11-15T05:41:22;5.70;99.90
2112;DHT22;1062;52.538;13.400;2022-11-15T05:43:51;5.70;99.90
2112;DHT22;1062;52.538;13.400;2022-11-15T05:46:17;5.70;99.90
2112;DHT22;1062;52.538;13.400;2022-11-15T05:48:45;5.70;99.90
2112;DHT22;1062;52.538;13.400;2022-11-15T05:51:12;5.70;99.90
2112;DHT22;1062;52.538;13.400;2022-11-15T05:53:39;5.70;99.90
2112;DHT22;1062;52.538;13.400;2022-11-15T05:56:05;5.70;99.90
2112;DHT22;1062;52.538;13.400;2022-11-15T05:58:35;5.70;99.90
2112;DHT22;1062;52.538;13.400;2022-11-15T06:01:01;5.70;99.90
2112;DHT22;1062;52.538;13.400;2022-11-15T06:03:27;5.70;99.90
2112;DHT22;1062;52.538;13.400;2022-11-15T06:05:53;5.70;99.90
2112;DHT22;1062;52.538;13.400;2022-11-15T06:08:18;5.70;99.90
2112;DHT22;1062;52.538;13.400;2022-11-15T06:10:44;5.70;99.90
2112;DHT22;1062;52.538;13.400;2022-11-15T06:13:09;5.70;99.90
2112;DHT22;1062;52.538;13.400;2022-11-15T06:15:35;5.70;99.90
2112;DHT22;1062;52.538;13.400;2022-11-15T06:18:01;5.70;99.90
2112;DHT22;1062;52.538;13.400;2022-11-15T06:20:28;5.60;99.90
2112;DHT22;1062;52.538;13.400;2022-11-15T06:23:02;5.60;99.90
2112;DHT22;1062;52.538;13.400;2022-11-15T06:25:29;5.60;99.90
2112;DHT22;1062;52.538;13.400;2022-11-15T06:27:56;5.60;99.90
2112;DHT22;1062;52.538;13.400;2022-11-15T06:30:24;5.60;99.90
2112;DHT22;1062;52.538;13.400;2022-11-15T06:32:49;5.60;99.90
2112;DHT22;1062;52.538;13.400;2022-11-15T06:35:15;5.60;99.90
2112;DHT22;1062;52.538;13.400;2022-11-15T06:37:41;5.60;99.90
2112;DHT22;1062;52.538;13.400;2022-11-15T06:40:09;5.60;99.90
2112;DHT22;1062;52.538;13.400;2022-11-15T06:42:34;5.60;99.90
2112;DHT22;1062;52.538;13.400;2022-11-15T06:45:00;5.50;99.90
2112;DHT22;1062;52.538;13.400;2022-11-15T06:47:26;5.60;99.90
2112;DHT22;1062;52.538;13.400;2022-11-15T06:49:52;5.60;99.90
2112;DHT22;1062;52.538;13.400;2022-11-15T06:52:17;5.60;99.90
2112;DHT22;1062;52.538;13.400;2022-11-15T06:54:46;5.60;99.90
2112;DHT22;1062;52.538;13.400;2022-11-15T06:57:12;5.70;99.90
2112;DHT22;1062;52.538;13.400;2022-11-15T06:59:38;5.70;99.90
2112;DHT22;1062;52.538;13.400;2022-11-15T07:02:04;5.70;99.90
2112;DHT22;1062;52.538;13.400;2022-11-15T07:04:29;5.70;99.90
2112;DHT22;1062;52.538;13.400;2022-11-15T07:06:55;5.80;99.90
2112;DHT22;1062;52.538;13.400;2022-11-15T07:09:20;5.90;99.90
2112;DHT22;1062;52.538;13.400;2022-11-15T07:11:46;5.90;99.90
2112;DHT22;1062;52.538;13.400;2022-11-15T07:14:12;5.90;99.90
2112;DHT22;1062;52.538;13.400;2022-11-15T07:16:37;6.00;99.90
2112;DHT22;1062;52.538;13.400;2022-11-15T07:19:03;6.00;99.90
2112;DHT22;1062;52.538;13.400;2022-11-15T07:21:29;6.10;99.90
2112;DHT22;1062;52.538;13.400;2022-11-15T07:23:55;6.20;99.90
2112;DHT22;1062;52.538;13.400;2022-11-15T07:26:20;6.30;99.90
2112;DHT22;1062;52.538;13.400;2022-11-15T07:28:46;6.40;99.90
2112;DHT22;1062;52.538;13.400;2022-11-15T07:31:12;6.50;99.90
2112;DHT22;1062;52.538;13.400;2022-11-15T07:33:37;6.50;99.90
2112;DHT22;1062;52.538;13.400;2022-11-15T07:36:05;6.60;99.90
2112;DHT22;1062;52.538;13.400;2022-11-15T07:38:31;6.60;99.90
2112;DHT22;1062;52.538;13.400;2022-11-15T07:41:01;6.70;99.90
2112;DHT22;1062;52.538;13.400;2022-11-15T07:43:28;6.80;99.90
2112;DHT22;1062;52.538;13.400;2022-11-15T07:45:55;6.80;99.90
2112;DHT22;1062;52.538;13.400;2022-11-15T07:48:21;7.00;99.90
2112;DHT22;1062;52.538;13.400;2022-11-15T07:50:46;7.60;99.90
2112;DHT22;1062;52.538;13.400;2022-11-15T07:53:12;8.20;99.90
2112;DHT22;1062;52.538;13.400;2022-11-15T07:55:40;8.50;99.90
2112;DHT22;1062;52.538;13.400;2022-11-15T07:58:07;8.80;99.90
2112;DHT22;1062;52.538;13.400;2022-11-15T08:00:34;9.10;99.90
2112;DHT22;1062;52.538;13.400;2022-11-15T08:03:11;9.50;99.90
2112;DHT22;1062;52.538;13.400;2022-11-15T08:05:38;9.40;99.90
2112;DHT22;1062;52.538;13.400;2022-11-15T08:08:04;9.80;99.90
2112;DHT22;1062;52.538;13.400;2022-11-15T08:10:30;10.00;99.90
2112;DHT22;1062;52.538;13.400;2022-11-15T08:13:00;10.00;99.90
2112;DHT22;1062;52.538;13.400;2022-11-15T08:15:27;9.40;99.90
2112;DHT22;1062;52.538;13.400;2022-11-15T08:17:56;9.10;99.90
2112;DHT22;1062;52.538;13.400;2022-11-15T08:20:23;8.80;99.90
2112;DHT22;1062;52.538;13.400;2022-11-15T08:22:48;8.70;99.90
2112;DHT22;1062;52.538;13.400;2022-11-15T08:25:14;8.70;99.90
2112;DHT22;1062;52.538;13.400;2022-11-15T08:27:40;8.70;99.90
2112;DHT22;1062;52.538;13.400;2022-11-15T08:30:06;9.00;99.90
2112;DHT22;1062;52.538;13.400;2022-11-15T08:32:32;9.00;99.90
2112;DHT22;1062;52.538;13.400;2022-11-15T08:34:58;9.10;99.90
2112;DHT22;1062;52.538;13.400;2022-11-15T08:37:23;9.40;99.90
2112;DHT22;1062;52.538;13.400;2022-11-15T08:39:49;9.50;99.90
2112;DHT22;1062;52.538;13.400;2022-11-15T08:42:15;9.60;99.90
2112;DHT22;1062;52.538;13.400;2022-11-15T08:44:42;10.40;99.90
2112;DHT22;1062;52.538;13.400;2022-11-15T08:47:07;10.90;99.90
2112;DHT22;1062;52.538;13.400;2022-11-15T08:49:36;11.00;99.90
2112;DHT22;1062;52.538;13.400;2022-11-15T08:52:01;11.10;99.90
2112;DHT22;1062;52.538;13.400;2022-11-15T08:54:27;10.50;99.90
2112;DHT22;1062;52.538;13.400;2022-11-15T08:56:53;10.00;99.90
2112;DHT22;1062;52.538;13.400;2022-11-15T08:59:19;9.90;99.90
2112;DHT22;1062;52.538;13.400;2022-11-15T09:01:46;9.70;99.90
2112;DHT22;1062;52.538;13.400;2022-11-15T09:04:12;9.60;99.90
2112;DHT22;1062;52.538;13.400;2022-11-15T09:06:38;9.60;99.90
2112;DHT22;1062;52.538;13.400;2022-11-15T09:09:04;9.70;99.90
2112;DHT22;1062;52.538;13.400;2022-11-15T09:11:30;9.60;99.90
2112;DHT22;1062;52.538;13.400;2022-11-15T09:13:56;9.60;99.90
2112;DHT22;1062;52.538;13.400;2022-11-15T09:16:22;9.70;99.90
2112;DHT22;1062;52.538;13.400;2022-11-15T09:18:48;9.80;99.90
2112;DHT22;1062;52.538;13.400;2022-11-15T09:21:14;10.00;99.90
2112;DHT22;1062;52.538;13.400;2022-11-15T09:23:40;10.10;99.90
2112;DHT22;1062;52.538;13.400;2022-11-15T09:26:06;10.20;99.90
2112;DHT22;1062;52.538;13.400;2022-11-15T09:28:33;10.20;99.90
2112;DHT22;1062;52.538;13.400;2022-11-15T09:31:01;10.30;99.90
2112;DHT22;1062;52.538;13.400;2022-11-15T09:33:28;10.20;99.90
2112;DHT22;1062;52.538;13.400;2022-11-15T09:35:57;10.10;99.90
2112;DHT22;1062;52.538;13.400;2022-11-15T09:38:24;10.00;99.90
2112;DHT22;1062;52.538;13.400;2022-11-15T09:41:22;10.10;99.90
2112;DHT22;1062;52.538;13.400;2022-11-15T09:49:04;10.40;99.90
2112;DHT22;1062;52.538;13.400;2022-11-15T09:51:33;10.40;99.90
2112;DHT22;1062;52.538;13.400;2022-11-15T09:56:46;10.30;99.90
2112;DHT22;1062;52.538;13.400;2022-11-15T10:05:03;10.40;99.90
2112;DHT22;1062;52.538;13.400;2022-11-15T10:07:52;10.50;99.90
2112;DHT22;1062;52.538;13.400;2022-11-15T10:10:29;10.70;99.90
2112;DHT22;1062;52.538;13.400;2022-11-15T10:12:57;10.80;99.90
2112;DHT22;1062;52.538;13.400;2022-11-15T10:15:24;10.70;99.90
2112;DHT22;1062;52.538;13.400;2022-11-15T10:18:12;10.70;99.90
2112;DHT22;1062;52.538;13.400;2022-11-15T10:20:49;10.70;99.90
2112;DHT22;1062;52.538;13.400;2022-11-15T10:23:18;10.90;99.90
2112;DHT22;1062;52.538;13.400;2022-11-15T10:25:44;11.00;99.90
2112;DHT22;1062;52.538;13.400;2022-11-15T10:28:35;11.00;99.90
2112;DHT22;1062;52.538;13.400;2022-11-15T10:31:01;11.10;99.90
2112;DHT22;1062;52.538;13.400;2022-11-15T10:33:37;11.10;99.90
2112;DHT22;1062;52.538;13.400;2022-11-15T10:41:41;11.30;99.90
2112;DHT22;1062;52.538;13.400;2022-11-15T10:44:22;11.30;99.90
2112;DHT22;1062;52.538;13.400;2022-11-15T10:49:27;11.40;99.90
2112;DHT22;1062;52.538;13.400;2022-11-15T10:52:14;11.30;99.90
2112;DHT22;1062;52.538;13.400;2022-11-15T10:54:50;11.50;99.90
2112;DHT22;1062;52.538;13.400;2022-11-15T10:57:36;11.50;99.90
2112;DHT22;1062;52.538;13.400;2022-11-15T11:00:29;11.60;99.90
2112;DHT22;1062;52.538;13.400;2022-11-15T11:08:25;12.00;99.90
2112;DHT22;1062;52.538;13.400;2022-11-15T11:10:58;12.10;99.90
2112;DHT22;1062;52.538;13.400;2022-11-15T11:13:28;12.00;99.90
2112;DHT22;1062;52.538;13.400;2022-11-15T11:16:18;12.10;99.90
2112;DHT22;1062;52.538;13.400;2022-11-15T11:22:16;12.20;99.90
2112;DHT22;1062;52.538;13.400;2022-11-15T11:24:58;12.30;99.90
2112;DHT22;1062;52.538;13.400;2022-11-15T11:30:14;12.40;99.90
2112;DHT22;1062;52.538;13.400;2022-11-15T11:41:53;12.50;99.90
2112;DHT22;1062;52.538;13.400;2022-11-15T11:47:09;12.60;99.90
2112;DHT22;1062;52.538;13.400;2022-11-15T11:54:58;12.70;99.90
2112;DHT22;1062;52.538;13.400;2022-11-15T12:00:22;12.70;99.90
2112;DHT22;1062;52.538;13.400;2022-11-15T12:03:10;12.70;99.90
2112;DHT22;1062;52.538;13.400;2022-11-15T12:05:56;12.80;99.90
2112;DHT22;1062;52.538;13.400;2022-11-15T12:08:40;12.80;99.90
2112;DHT22;1062;52.538;13.400;2022-11-15T12:11:14;12.90;99.90
2112;DHT22;1062;52.538;13.400;2022-11-15T12:13:43;13.00;99.90
2112;DHT22;1062;52.538;13.400;2022-11-15T12:16:31;13.00;99.90
2112;DHT22;1062;52.538;13.400;2022-11-15T12:19:01;13.10;99.90
2112;DHT22;1062;52.538;13.400;2022-11-15T12:21:42;13.00;99.90
2112;DHT22;1062;52.538;13.400;2022-11-15T12:24:17;13.10;99.90
2112;DHT22;1062;52.538;13.400;2022-11-15T12:27:17;13.00;99.90
2112;DHT22;1062;52.538;13.400;2022-11-15T12:29:51;13.00;99.90
2112;DHT22;1062;52.538;13.400;2022-11-15T12:34:52;13.10;99.90
2112;DHT22;1062;52.538;13.400;2022-11-15T12:37:51;13.20;99.90
2112;DHT22;1062;52.538;13.400;2022-11-15T12:40:37;13.20;99.90
2112;DHT22;1062;52.538;13.400;2022-11-15T12:45:41;13.20;99.90
2112;DHT22;1062;52.538;13.400;2022-11-15T12:53:36;13.30;99.90
2112;DHT22;1062;52.538;13.400;2022-11-15T13:01:08;13.30;99.90
2112;DHT22;1062;52.538;13.400;2022-11-15T13:03:34;13.30;99.90
2112;DHT22;1062;52.538;13.400;2022-11-15T13:06:03;13.30;99.90
2112;DHT22;1062;52.538;13.400;2022-11-15T13:08:37;13.30;99.90
2112;DHT22;1062;52.538;13.400;2022-11-15T13:17:30;13.40;99.90
2112;DHT22;1062;52.538;13.400;2022-11-15T13:22:50;13.40;99.90
2112;DHT22;1062;52.538;13.400;2022-11-15T13:33:21;13.40;99.90
2112;DHT22;1062;52.538;13.400;2022-11-15T13:35:56;13.30;99.90
2112;DHT22;1062;52.538;13.400;2022-11-15T13:38:32;13.30;99.90
2112;DHT22;1062;52.538;13.400;2022-11-15T13:40:59;13.30;99.90
2112;DHT22;1062;52.538;13.400;2022-11-15T13:43:32;13.30;99.90
2112;DHT22;1062;52.538;13.400;2022-11-15T13:46:17;13.30;99.90
2112;DHT22;1062;52.538;13.400;2022-11-15T13:48:45;13.30;99.90
2112;DHT22;1062;52.538;13.400;2022-11-15T13:54:09;13.30;99.90
2112;DHT22;1062;52.538;13.400;2022-11-15T13:56:40;13.30;99.90
2112;DHT22;1062;52.538;13.400;2022-11-15T13:59:23;13.30;99.90
2112;DHT22;1062;52.538;13.400;2022-11-15T14:01:50;13.30;99.90
2112;DHT22;1062;52.538;13.400;2022-11-15T14:04:20;13.30;99.90
2112;DHT22;1062;52.538;13.400;2022-11-15T14:06:50;13.20;99.90
2112;DHT22;1062;52.538;13.400;2022-11-15T14:11:56;13.10;99.90
2112;DHT22;1062;52.538;13.400;2022-11-15T14:14:26;13.10;99.90
2112;DHT22;1062;52.538;13.400;2022-11-15T14:16:58;13.10;99.90
2112;DHT22;1062;52.538;13.400;2022-11-15T14:24:39;13.00;99.90
2112;DHT22;1062;52.538;13.400;2022-11-15T14:27:26;13.00;99.90
2112;DHT22;1062;52.538;13.400;2022-11-15T14:29:54;13.00;99.90
2112;DHT22;1062;52.538;13.400;2022-11-15T14:32:24;12.90;99.90
2112;DHT22;1062;52.538;13.400;2022-11-15T14:34:59;12.80;99.90
2112;DHT22;1062;52.538;13.400;2022-11-15T14:37:27;12.80;99.90
2112;DHT22;1062;52.538;13.400;2022-11-15T14:39:54;12.70;99.90
2112;DHT22;1062;52.538;13.400;2022-11-15T14:42:21;12.60;99.90
2112;DHT22;1062;52.538;13.400;2022-11-15T14:44:47;12.50;99.90
2112;DHT22;1062;52.538;13.400;2022-11-15T14:47:13;12.50;99.90
2112;DHT22;1062;52.538;13.400;2022-11-15T14:49:39;12.40;99.90
2112;DHT22;1062;52.538;13.400;2022-11-15T14:54:51;12.30;99.90
2112;DHT22;1062;52.538;13.400;2022-11-15T14:57:17;12.30;99.90
2112;DHT22;1062;52.538;13.400;2022-11-15T14:59:42;12.20;99.90
2112;DHT22;1062;52.538;13.400;2022-11-15T15:02:26;12.10;99.90
2112;DHT22;1062;52.538;13.400;2022-11-15T15:04:53;12.00;99.90
2112;DHT22;1062;52.538;13.400;2022-11-15T15:07:18;12.00;99.90
2112;DHT22;1062;52.538;13.400;2022-11-15T15:09:44;11.90;99.90
2112;DHT22;1062;52.538;13.400;2022-11-15T15:12:29;11.90;99.90
2112;DHT22;1062;52.538;13.400;2022-11-15T15:14:55;11.80;99.90
2112;DHT22;1062;52.538;13.400;2022-11-15T15:17:20;11.70;99.90
2112;DHT22;1062;52.538;13.400;2022-11-15T15:19:46;11.60;99.90
2112;DHT22;1062;52.538;13.400;2022-11-15T15:22:20;11.60;99.90
2112;DHT22;1062;52.538;13.400;2022-11-15T15:24:50;11.50;99.90
2112;DHT22;1062;52.538;13.400;2022-11-15T15:27:16;11.50;99.90
2112;DHT22;1062;52.538;13.400;2022-11-15T15:29:42;11.40;99.90
2112;DHT22;1062;52.538;13.400;2022-11-15T15:32:08;11.40;99.90
2112;DHT22;1062;52.538;13.400;2022-11-15T15:34:34;11.30;99.90
2112;DHT22;1062;52.538;13.400;2022-11-15T15:37:26;11.30;99.90
2112;DHT22;1062;52.538;13.400;2022-11-15T15:39:53;11.20;99.90
2112;DHT22;1062;52.538;13.400;2022-11-15T15:42:19;11.10;99.90
2112;DHT22;1062;52.538;13.400;2022-11-15T15:44:46;11.10;99.90
2112;DHT22;1062;52.538;13.400;2022-11-15T15:47:22;11.10;99.90
2112;DHT22;1062;52.538;13.400;2022-11-15T15:49:49;11.00;99.90
2112;DHT22;1062;52.538;13.400;2022-11-15T15:52:16;10.90;99.90
2112;DHT22;1062;52.538;13.400;2022-11-15T15:54:42;10.90;99.90
2112;DHT22;1062;52.538;13.400;2022-11-15T15:57:11;10.90;99.90
2112;DHT22;1062;52.538;13.400;2022-11-15T15:59:37;10.80;99.90
2112;DHT22;1062;52.538;13.400;2022-11-15T16:02:03;10.80;99.90
2112;DHT22;1062;52.538;13.400;2022-11-15T16:04:28;10.80;99.90
2112;DHT22;1062;52.538;13.400;2022-11-15T16:07:01;10.70;99.90
2112;DHT22;1062;52.538;13.400;2022-11-15T16:09:27;10.70;99.90
2112;DHT22;1062;52.538;13.400;2022-11-15T16:12:11;10.70;99.90
2112;DHT22;1062;52.538;13.400;2022-11-15T16:14:37;10.60;99.90
2112;DHT22;1062;52.538;13.400;2022-11-15T16:17:03;10.60;99.90
2112;DHT22;1062;52.538;13.400;2022-11-15T16:19:29;10.50;99.90
2112;DHT22;1062;52.538;13.400;2022-11-15T16:21:54;10.50;99.90
2112;DHT22;1062;52.538;13.400;2022-11-15T16:24:20;10.50;99.90
2112;DHT22;1062;52.538;13.400;2022-11-15T16:26:47;10.50;99.90
2112;DHT22;1062;52.538;13.400;2022-11-15T16:29:13;10.40;99.90
2112;DHT22;1062;52.538;13.400;2022-11-15T16:31:39;10.40;99.90
2112;DHT22;1062;52.538;13.400;2022-11-15T16:34:05;10.30;99.90
2112;DHT22;1062;52.538;13.400;2022-11-15T16:36:33;10.30;99.90
2112;DHT22;1062;52.538;13.400;2022-11-15T16:39:00;10.30;99.90
2112;DHT22;1062;52.538;13.400;2022-11-15T16:41:29;10.20;99.90
2112;DHT22;1062;52.538;13.400;2022-11-15T16:43:55;10.20;99.90
2112;DHT22;1062;52.538;13.400;2022-11-15T16:46:22;10.10;99.90
2112;DHT22;1062;52.538;13.400;2022-11-15T16:48:48;10.00;99.90
2112;DHT22;1062;52.538;13.400;2022-11-15T16:51:15;10.00;99.90
2112;DHT22;1062;52.538;13.400;2022-11-15T16:53:41;9.90;99.90
2112;DHT22;1062;52.538;13.400;2022-11-15T16:56:28;9.90;99.90
2112;DHT22;1062;52.538;13.400;2022-11-15T16:58:55;9.80;99.90
2112;DHT22;1062;52.538;13.400;2022-11-15T17:01:24;9.70;99.90
2112;DHT22;1062;52.538;13.400;2022-11-15T17:03:50;9.70;99.90
2112;DHT22;1062;52.538;13.400;2022-11-15T17:06:16;9.60;99.90
2112;DHT22;1062;52.538;13.400;2022-11-15T17:08:46;9.60;99.90
2112;DHT22;1062;52.538;13.400;2022-11-15T17:11:16;9.50;99.90
2112;DHT22;1062;52.538;13.400;2022-11-15T17:13:43;9.50;99.90
2112;DHT22;1062;52.538;13.400;2022-11-15T17:16:13;9.40;99.90
2112;DHT22;1062;52.538;13.400;2022-11-15T17:18:40;9.30;99.90
2112;DHT22;1062;52.538;13.400;2022-11-15T17:21:09;9.30;99.90
2112;DHT22;1062;52.538;13.400;2022-11-15T17:23:36;9.20;99.90
2112;DHT22;1062;52.538;13.400;2022-11-15T17:26:03;9.20;99.90
2112;DHT22;1062;52.538;13.400;2022-11-15T17:28:30;9.10;99.90
2112;DHT22;1062;52.538;13.400;2022-11-15T17:30:56;9.10;99.90
2112;DHT22;1062;52.538;13.400;2022-11-15T17:33:22;9.00;99.90
2112;DHT22;1062;52.538;13.400;2022-11-15T17:35:58;8.90;99.90
2112;DHT22;1062;52.538;13.400;2022-11-15T17:38:24;8.90;99.90
2112;DHT22;1062;52.538;13.400;2022-11-15T17:41:03;8.80;99.90
2112;DHT22;1062;52.538;13.400;2022-11-15T17:43:31;8.80;99.90
2112;DHT22;1062;52.538;13.400;2022-11-15T17:45:58;8.70;99.90
2112;DHT22;1062;52.538;13.400;2022-11-15T17:48:24;8.60;99.90
2112;DHT22;1062;52.538;13.400;2022-11-15T17:51:17;8.60;99.90
2112;DHT22;1062;52.538;13.400;2022-11-15T17:53:45;8.50;99.90
2112;DHT22;1062;52.538;13.400;2022-11-15T17:56:14;8.50;99.90
2112;DHT22;1062;52.538;13.400;2022-11-15T17:58:40;8.40;99.90
2112;DHT22;1062;52.538;13.400;2022-11-15T18:01:18;8.40;99.90
2112;DHT22;1062;52.538;13.400;2022-11-15T18:03:44;8.40;99.90
2112;DHT22;1062;52.538;13.400;2022-11-15T18:06:11;8.30;99.90
2112;DHT22;1062;52.538;13.400;2022-11-15T18:08:38;8.30;99.90
2112;DHT22;1062;52.538;13.400;2022-11-15T18:13:33;8.20;99.90
2112;DHT22;1062;52.538;13.400;2022-11-15T18:15:59;8.10;99.90
2112;DHT22;1062;52.538;13.400;2022-11-15T18:18:29;8.10;99.90
2112;DHT22;1062;52.538;13.400;2022-11-15T18:21:02;8.00;99.90